Terminal Aerodrome Forecast
Issued by NWS Norman, OK

Home | Current Version | Previous Version | Text Only | Print | Product List | Glossary On
Versions: 1 2 3 4 5 6 7 8 9 10 11 12 13 14 15 16 17 18 19 20 21 22 23 24 25 26 27 28
364
FTUS44 KOUN 231335 AAA
TAFOKC
TAF AMD
KOKC 231335Z 2314/2412 06011G18KT P6SM SCT100
     FM232200 06008KT P6SM VCTS BKN080CB
     FM240100 12006KT P6SM FEW100 BKN200=

USA.gov is the U.S. government's official web portal to all federal, state and local government web resources and services.